sensor_id;sensor_type;location;lat;lon;timestamp;P1;durP1;ratioP1;P2;durP2;ratioP2
69197;SDS011;56311;50.298;8.514;2022-09-01T00:01:45;6.03;;;3.05;;
69197;SDS011;56311;50.298;8.514;2022-09-01T00:04:15;5.32;;;2.90;;
69197;SDS011;56311;50.298;8.514;2022-09-01T00:06:45;5.30;;;3.22;;
69197;SDS011;56311;50.298;8.514;2022-09-01T00:09:13;5.53;;;2.63;;
69197;SDS011;56311;50.298;8.514;2022-09-01T00:11:44;4.97;;;3.00;;
69197;SDS011;56311;50.298;8.514;2022-09-01T00:14:17;5.43;;;3.17;;
69197;SDS011;56311;50.298;8.514;2022-09-01T00:16:56;8.23;;;2.80;;
69197;SDS011;56311;50.298;8.514;2022-09-01T00:19:23;5.10;;;2.80;;
69197;SDS011;56311;50.298;8.514;2022-09-01T00:21:51;4.47;;;2.60;;
69197;SDS011;56311;50.298;8.514;2022-09-01T00:24:18;5.55;;;2.80;;
69197;SDS011;56311;50.298;8.514;2022-09-01T00:26:48;7.22;;;2.50;;
69197;SDS011;56311;50.298;8.514;2022-09-01T00:29:15;6.57;;;2.80;;
69197;SDS011;56311;50.298;8.514;2022-09-01T00:31:42;5.70;;;2.78;;
69197;SDS011;56311;50.298;8.514;2022-09-01T00:34:10;5.82;;;2.67;;
69197;SDS011;56311;50.298;8.514;2022-09-01T00:36:37;7.53;;;2.70;;
69197;SDS011;56311;50.298;8.514;2022-09-01T00:39:04;5.25;;;2.92;;
69197;SDS011;56311;50.298;8.514;2022-09-01T00:41:33;6.95;;;2.70;;
69197;SDS011;56311;50.298;8.514;2022-09-01T00:44:06;4.07;;;2.58;;
69197;SDS011;56311;50.298;8.514;2022-09-01T00:46:38;4.80;;;2.65;;
69197;SDS011;56311;50.298;8.514;2022-09-01T00:49:18;4.57;;;2.88;;
69197;SDS011;56311;50.298;8.514;2022-09-01T00:51:48;4.72;;;2.33;;
69197;SDS011;56311;50.298;8.514;2022-09-01T00:54:19;3.60;;;2.50;;
69197;SDS011;56311;50.298;8.514;2022-09-01T00:56:48;7.53;;;2.75;;
69197;SDS011;56311;50.298;8.514;2022-09-01T00:59:24;3.67;;;2.30;;
69197;SDS011;56311;50.298;8.514;2022-09-01T01:01:53;5.00;;;2.80;;
69197;SDS011;56311;50.298;8.514;2022-09-01T01:04:21;6.40;;;2.75;;
69197;SDS011;56311;50.298;8.514;2022-09-01T01:06:48;4.18;;;2.45;;
69197;SDS011;56311;50.298;8.514;2022-09-01T01:09:25;5.13;;;2.33;;
69197;SDS011;56311;50.298;8.514;2022-09-01T01:11:54;7.40;;;2.38;;
69197;SDS011;56311;50.298;8.514;2022-09-01T01:14:27;4.82;;;2.00;;
69197;SDS011;56311;50.298;8.514;2022-09-01T01:16:58;5.50;;;2.55;;
69197;SDS011;56311;50.298;8.514;2022-09-01T01:19:29;4.32;;;2.42;;
69197;SDS011;56311;50.298;8.514;2022-09-01T01:22:25;4.85;;;2.60;;
69197;SDS011;56311;50.298;8.514;2022-09-01T01:25:19;5.03;;;2.22;;
69197;SDS011;56311;50.298;8.514;2022-09-01T01:27:48;3.40;;;2.20;;
69197;SDS011;56311;50.298;8.514;2022-09-01T01:30:15;5.40;;;2.33;;
69197;SDS011;56311;50.298;8.514;2022-09-01T01:32:46;3.30;;;2.10;;
69197;SDS011;56311;50.298;8.514;2022-09-01T01:35:16;3.25;;;2.15;;
69197;SDS011;56311;50.298;8.514;2022-09-01T01:37:46;4.05;;;2.28;;
69197;SDS011;56311;50.298;8.514;2022-09-01T01:40:15;4.35;;;2.30;;
69197;SDS011;56311;50.298;8.514;2022-09-01T01:42:47;4.72;;;2.33;;
69197;SDS011;56311;50.298;8.514;2022-09-01T01:45:17;4.35;;;2.30;;
69197;SDS011;56311;50.298;8.514;2022-09-01T01:47:47;6.93;;;2.53;;
69197;SDS011;56311;50.298;8.514;2022-09-01T01:50:23;5.35;;;2.40;;
69197;SDS011;56311;50.298;8.514;2022-09-01T01:52:52;5.10;;;2.30;;
69197;SDS011;56311;50.298;8.514;2022-09-01T01:55:25;3.67;;;2.28;;
69197;SDS011;56311;50.298;8.514;2022-09-01T01:57:58;5.18;;;2.30;;
69197;SDS011;56311;50.298;8.514;2022-09-01T02:00:26;5.63;;;2.28;;
69197;SDS011;56311;50.298;8.514;2022-09-01T02:02:56;3.85;;;2.42;;
69197;SDS011;56311;50.298;8.514;2022-09-01T02:05:25;8.43;;;2.40;;
69197;SDS011;56311;50.298;8.514;2022-09-01T02:07:56;6.22;;;2.63;;
69197;SDS011;56311;50.298;8.514;2022-09-01T02:10:26;3.97;;;2.15;;
69197;SDS011;56311;50.298;8.514;2022-09-01T02:12:58;3.78;;;2.10;;
69197;SDS011;56311;50.298;8.514;2022-09-01T02:15:30;4.55;;;2.17;;
69197;SDS011;56311;50.298;8.514;2022-09-01T02:18:00;4.10;;;2.17;;
69197;SDS011;56311;50.298;8.514;2022-09-01T02:20:30;3.50;;;1.88;;
69197;SDS011;56311;50.298;8.514;2022-09-01T02:22:58;4.43;;;1.75;;
69197;SDS011;56311;50.298;8.514;2022-09-01T02:25:34;5.18;;;2.38;;
69197;SDS011;56311;50.298;8.514;2022-09-01T02:28:03;5.40;;;1.90;;
69197;SDS011;56311;50.298;8.514;2022-09-01T02:30:34;6.47;;;2.45;;
69197;SDS011;56311;50.298;8.514;2022-09-01T02:33:03;4.82;;;2.20;;
69197;SDS011;56311;50.298;8.514;2022-09-01T02:35:30;4.55;;;2.30;;
69197;SDS011;56311;50.298;8.514;2022-09-01T02:37:59;3.65;;;2.10;;
69197;SDS011;56311;50.298;8.514;2022-09-01T02:40:27;3.40;;;2.08;;
69197;SDS011;56311;50.298;8.514;2022-09-01T02:42:57;4.32;;;1.92;;
69197;SDS011;56311;50.298;8.514;2022-09-01T02:45:27;5.18;;;2.00;;
69197;SDS011;56311;50.298;8.514;2022-09-01T02:47:55;3.80;;;2.20;;
69197;SDS011;56311;50.298;8.514;2022-09-01T02:50:24;5.38;;;1.95;;
69197;SDS011;56311;50.298;8.514;2022-09-01T02:52:52;4.57;;;2.10;;
69197;SDS011;56311;50.298;8.514;2022-09-01T02:55:20;5.80;;;2.22;;
69197;SDS011;56311;50.298;8.514;2022-09-01T02:57:48;5.30;;;1.88;;
69197;SDS011;56311;50.298;8.514;2022-09-01T03:00:18;3.75;;;1.83;;
69197;SDS011;56311;50.298;8.514;2022-09-01T03:03:00;4.13;;;2.00;;
69197;SDS011;56311;50.298;8.514;2022-09-01T03:05:29;7.35;;;2.13;;
69197;SDS011;56311;50.298;8.514;2022-09-01T03:07:58;3.97;;;1.98;;
69197;SDS011;56311;50.298;8.514;2022-09-01T03:10:29;4.68;;;2.90;;
69197;SDS011;56311;50.298;8.514;2022-09-01T03:12:59;6.07;;;2.30;;
69197;SDS011;56311;50.298;8.514;2022-09-01T03:15:27;5.20;;;2.78;;
69197;SDS011;56311;50.298;8.514;2022-09-01T03:17:55;6.43;;;2.45;;
69197;SDS011;56311;50.298;8.514;2022-09-01T03:20:26;5.45;;;2.20;;
69197;SDS011;56311;50.298;8.514;2022-09-01T03:22:55;4.20;;;2.45;;
69197;SDS011;56311;50.298;8.514;2022-09-01T03:25:24;5.10;;;2.20;;
69197;SDS011;56311;50.298;8.514;2022-09-01T03:27:51;5.57;;;2.10;;
69197;SDS011;56311;50.298;8.514;2022-09-01T03:30:19;4.70;;;2.10;;
69197;SDS011;56311;50.298;8.514;2022-09-01T03:32:46;4.20;;;2.17;;
69197;SDS011;56311;50.298;8.514;2022-09-01T03:35:13;4.43;;;2.50;;
69197;SDS011;56311;50.298;8.514;2022-09-01T03:37:43;4.65;;;2.28;;
69197;SDS011;56311;50.298;8.514;2022-09-01T03:40:11;7.28;;;2.53;;
69197;SDS011;56311;50.298;8.514;2022-09-01T03:42:39;4.68;;;2.03;;
69197;SDS011;56311;50.298;8.514;2022-09-01T03:45:07;4.35;;;2.20;;
69197;SDS011;56311;50.298;8.514;2022-09-01T03:47:34;5.05;;;2.10;;
69197;SDS011;56311;50.298;8.514;2022-09-01T03:50:07;4.70;;;2.28;;
69197;SDS011;56311;50.298;8.514;2022-09-01T03:52:50;4.13;;;2.20;;
69197;SDS011;56311;50.298;8.514;2022-09-01T03:55:19;4.95;;;2.10;;
69197;SDS011;56311;50.298;8.514;2022-09-01T03:57:48;4.50;;;2.03;;
69197;SDS011;56311;50.298;8.514;2022-09-01T04:00:16;4.20;;;2.10;;
69197;SDS011;56311;50.298;8.514;2022-09-01T04:02:49;5.28;;;1.98;;
69197;SDS011;56311;50.298;8.514;2022-09-01T04:05:21;3.78;;;2.05;;
69197;SDS011;56311;50.298;8.514;2022-09-01T04:07:51;4.68;;;2.33;;
69197;SDS011;56311;50.298;8.514;2022-09-01T04:10:19;4.35;;;2.35;;
69197;SDS011;56311;50.298;8.514;2022-09-01T04:12:47;4.70;;;2.28;;
69197;SDS011;56311;50.298;8.514;2022-09-01T04:15:16;4.03;;;1.95;;
69197;SDS011;56311;50.298;8.514;2022-09-01T04:17:45;3.65;;;2.20;;
69197;SDS011;56311;50.298;8.514;2022-09-01T04:20:31;6.95;;;2.25;;
69197;SDS011;56311;50.298;8.514;2022-09-01T04:23:06;8.88;;;2.22;;
69197;SDS011;56311;50.298;8.514;2022-09-01T04:25:36;5.18;;;2.42;;
69197;SDS011;56311;50.298;8.514;2022-09-01T04:28:04;4.43;;;2.40;;
69197;SDS011;56311;50.298;8.514;2022-09-01T04:30:49;4.28;;;2.58;;
69197;SDS011;56311;50.298;8.514;2022-09-01T04:33:18;5.07;;;2.10;;
69197;SDS011;56311;50.298;8.514;2022-09-01T04:35:46;5.53;;;2.40;;
69197;SDS011;56311;50.298;8.514;2022-09-01T04:38:14;5.45;;;2.38;;
69197;SDS011;56311;50.298;8.514;2022-09-01T04:40:42;5.47;;;2.70;;
69197;SDS011;56311;50.298;8.514;2022-09-01T04:43:09;5.50;;;2.38;;
69197;SDS011;56311;50.298;8.514;2022-09-01T04:45:36;7.68;;;2.40;;
69197;SDS011;56311;50.298;8.514;2022-09-01T04:48:04;6.20;;;2.15;;
69197;SDS011;56311;50.298;8.514;2022-09-01T04:50:31;4.25;;;2.55;;
69197;SDS011;56311;50.298;8.514;2022-09-01T04:53:00;7.03;;;2.80;;
69197;SDS011;56311;50.298;8.514;2022-09-01T04:55:31;5.18;;;2.55;;
69197;SDS011;56311;50.298;8.514;2022-09-01T04:57:58;5.47;;;2.45;;
69197;SDS011;56311;50.298;8.514;2022-09-01T05:00:27;5.05;;;2.50;;
69197;SDS011;56311;50.298;8.514;2022-09-01T05:02:58;11.18;;;2.80;;
69197;SDS011;56311;50.298;8.514;2022-09-01T05:05:35;4.70;;;2.40;;
69197;SDS011;56311;50.298;8.514;2022-09-01T05:08:04;6.85;;;2.67;;
69197;SDS011;56311;50.298;8.514;2022-09-01T05:10:33;5.18;;;2.60;;
69197;SDS011;56311;50.298;8.514;2022-09-01T05:13:07;6.03;;;2.97;;
69197;SDS011;56311;50.298;8.514;2022-09-01T05:15:36;6.63;;;2.80;;
69197;SDS011;56311;50.298;8.514;2022-09-01T05:18:03;4.85;;;2.45;;
69197;SDS011;56311;50.298;8.514;2022-09-01T05:20:36;4.20;;;2.67;;
69197;SDS011;56311;50.298;8.514;2022-09-01T05:23:05;5.10;;;2.83;;
69197;SDS011;56311;50.298;8.514;2022-09-01T05:25:37;5.70;;;2.53;;
69197;SDS011;56311;50.298;8.514;2022-09-01T05:28:07;5.35;;;2.90;;
69197;SDS011;56311;50.298;8.514;2022-09-01T05:30:35;5.72;;;2.42;;
69197;SDS011;56311;50.298;8.514;2022-09-01T05:33:05;5.05;;;2.35;;
69197;SDS011;56311;50.298;8.514;2022-09-01T05:35:51;6.35;;;2.60;;
69197;SDS011;56311;50.298;8.514;2022-09-01T05:40:55;7.47;;;2.40;;
69197;SDS011;56311;50.298;8.514;2022-09-01T05:43:24;6.65;;;2.50;;
69197;SDS011;56311;50.298;8.514;2022-09-01T05:45:53;7.50;;;2.40;;
69197;SDS011;56311;50.298;8.514;2022-09-01T05:48:32;4.90;;;2.45;;
69197;SDS011;56311;50.298;8.514;2022-09-01T05:51:05;4.30;;;2.47;;
69197;SDS011;56311;50.298;8.514;2022-09-01T05:53:47;5.88;;;2.30;;
69197;SDS011;56311;50.298;8.514;2022-09-01T05:56:21;4.32;;;2.28;;
69197;SDS011;56311;50.298;8.514;2022-09-01T05:58:49;7.50;;;2.63;;
69197;SDS011;56311;50.298;8.514;2022-09-01T06:01:38;6.35;;;2.72;;
69197;SDS011;56311;50.298;8.514;2022-09-01T06:04:07;7.55;;;2.65;;
69197;SDS011;56311;50.298;8.514;2022-09-01T06:06:36;6.32;;;2.60;;
69197;SDS011;56311;50.298;8.514;2022-09-01T06:09:26;5.80;;;2.20;;
69197;SDS011;56311;50.298;8.514;2022-09-01T06:11:54;5.30;;;2.20;;
69197;SDS011;56311;50.298;8.514;2022-09-01T06:14:22;5.15;;;2.50;;
69197;SDS011;56311;50.298;8.514;2022-09-01T06:16:50;5.03;;;2.10;;
69197;SDS011;56311;50.298;8.514;2022-09-01T06:19:19;6.68;;;2.00;;
69197;SDS011;56311;50.298;8.514;2022-09-01T06:21:46;7.70;;;2.00;;
69197;SDS011;56311;50.298;8.514;2022-09-01T06:24:14;7.90;;;1.92;;
69197;SDS011;56311;50.298;8.514;2022-09-01T06:26:41;7.88;;;2.58;;
69197;SDS011;56311;50.298;8.514;2022-09-01T06:29:13;5.97;;;1.83;;
69197;SDS011;56311;50.298;8.514;2022-09-01T06:31:41;3.72;;;1.65;;
69197;SDS011;56311;50.298;8.514;2022-09-01T06:34:09;7.05;;;1.50;;
69197;SDS011;56311;50.298;8.514;2022-09-01T06:36:43;4.07;;;1.58;;
69197;SDS011;56311;50.298;8.514;2022-09-01T06:39:12;5.45;;;1.55;;
69197;SDS011;56311;50.298;8.514;2022-09-01T06:41:45;4.35;;;1.45;;
69197;SDS011;56311;50.298;8.514;2022-09-01T06:44:15;3.58;;;1.42;;
69197;SDS011;56311;50.298;8.514;2022-09-01T06:46:48;5.22;;;1.40;;
69197;SDS011;56311;50.298;8.514;2022-09-01T06:49:15;4.68;;;1.25;;
69197;SDS011;56311;50.298;8.514;2022-09-01T06:51:42;6.03;;;1.42;;
69197;SDS011;56311;50.298;8.514;2022-09-01T06:54:10;5.15;;;1.50;;
69197;SDS011;56311;50.298;8.514;2022-09-01T06:56:40;3.85;;;1.30;;
69197;SDS011;56311;50.298;8.514;2022-09-01T06:59:29;3.70;;;1.45;;
69197;SDS011;56311;50.298;8.514;2022-09-01T07:02:01;3.75;;;1.58;;
69197;SDS011;56311;50.298;8.514;2022-09-01T07:04:31;4.80;;;1.17;;
69197;SDS011;56311;50.298;8.514;2022-09-01T07:07:01;3.08;;;1.20;;
69197;SDS011;56311;50.298;8.514;2022-09-01T07:09:52;5.60;;;1.65;;
69197;SDS011;56311;50.298;8.514;2022-09-01T07:12:40;3.70;;;1.27;;
69197;SDS011;56311;50.298;8.514;2022-09-01T07:15:33;3.20;;;1.13;;
69197;SDS011;56311;50.298;8.514;2022-09-01T07:18:25;4.05;;;1.20;;
69197;SDS011;56311;50.298;8.514;2022-09-01T07:20:53;3.33;;;1.20;;
69197;SDS011;56311;50.298;8.514;2022-09-01T07:23:41;3.83;;;1.30;;
69197;SDS011;56311;50.298;8.514;2022-09-01T07:26:29;4.75;;;1.10;;
69197;SDS011;56311;50.298;8.514;2022-09-01T07:28:59;4.97;;;1.40;;
69197;SDS011;56311;50.298;8.514;2022-09-01T07:31:34;3.38;;;1.50;;
69197;SDS011;56311;50.298;8.514;2022-09-01T07:34:24;7.07;;;1.50;;
69197;SDS011;56311;50.298;8.514;2022-09-01T07:37:12;5.45;;;1.23;;
69197;SDS011;56311;50.298;8.514;2022-09-01T07:40:00;3.10;;;1.13;;
69197;SDS011;56311;50.298;8.514;2022-09-01T07:42:47;5.47;;;1.35;;
69197;SDS011;56311;50.298;8.514;2022-09-01T07:45:35;3.03;;;1.23;;
69197;SDS011;56311;50.298;8.514;2022-09-01T07:48:18;3.75;;;1.50;;
69197;SDS011;56311;50.298;8.514;2022-09-01T07:51:10;3.38;;;1.50;;
69197;SDS011;56311;50.298;8.514;2022-09-01T07:53:58;5.50;;;1.40;;
69197;SDS011;56311;50.298;8.514;2022-09-01T07:56:28;4.32;;;1.10;;
69197;SDS011;56311;50.298;8.514;2022-09-01T07:59:05;3.25;;;1.20;;
69197;SDS011;56311;50.298;8.514;2022-09-01T08:01:34;3.78;;;1.40;;
69197;SDS011;56311;50.298;8.514;2022-09-01T08:04:03;3.30;;;1.30;;
69197;SDS011;56311;50.298;8.514;2022-09-01T08:06:30;5.32;;;1.35;;
69197;SDS011;56311;50.298;8.514;2022-09-01T08:09:04;7.90;;;1.48;;
69197;SDS011;56311;50.298;8.514;2022-09-01T08:11:55;4.55;;;1.35;;
69197;SDS011;56311;50.298;8.514;2022-09-01T08:14:28;4.95;;;1.63;;
69197;SDS011;56311;50.298;8.514;2022-09-01T08:17:00;4.40;;;1.20;;
69197;SDS011;56311;50.298;8.514;2022-09-01T08:19:44;2.50;;;1.10;;
69197;SDS011;56311;50.298;8.514;2022-09-01T08:22:13;4.72;;;1.40;;
69197;SDS011;56311;50.298;8.514;2022-09-01T08:24:41;2.95;;;1.30;;
69197;SDS011;56311;50.298;8.514;2022-09-01T08:27:08;3.65;;;1.25;;
69197;SDS011;56311;50.298;8.514;2022-09-01T08:29:35;4.30;;;1.30;;
69197;SDS011;56311;50.298;8.514;2022-09-01T08:32:02;3.45;;;1.20;;
69197;SDS011;56311;50.298;8.514;2022-09-01T08:34:31;6.93;;;1.35;;
69197;SDS011;56311;50.298;8.514;2022-09-01T08:36:59;5.00;;;1.20;;
69197;SDS011;56311;50.298;8.514;2022-09-01T08:39:27;2.55;;;1.02;;
69197;SDS011;56311;50.298;8.514;2022-09-01T08:41:56;3.47;;;1.23;;
69197;SDS011;56311;50.298;8.514;2022-09-01T08:44:36;3.95;;;1.38;;
69197;SDS011;56311;50.298;8.514;2022-09-01T08:47:11;4.20;;;1.38;;
69197;SDS011;56311;50.298;8.514;2022-09-01T08:49:42;5.18;;;1.38;;
69197;SDS011;56311;50.298;8.514;2022-09-01T08:52:16;5.80;;;1.55;;
69197;SDS011;56311;50.298;8.514;2022-09-01T08:54:52;3.30;;;1.20;;
69197;SDS011;56311;50.298;8.514;2022-09-01T08:57:25;5.20;;;1.45;;
69197;SDS011;56311;50.298;8.514;2022-09-01T08:59:56;5.60;;;1.63;;
69197;SDS011;56311;50.298;8.514;2022-09-01T09:02:36;4.20;;;1.30;;
69197;SDS011;56311;50.298;8.514;2022-09-01T09:05:16;4.72;;;1.40;;
69197;SDS011;56311;50.298;8.514;2022-09-01T09:08:01;4.68;;;1.55;;
69197;SDS011;56311;50.298;8.514;2022-09-01T09:10:45;6.53;;;1.60;;
69197;SDS011;56311;50.298;8.514;2022-09-01T09:13:21;3.08;;;1.30;;
69197;SDS011;56311;50.298;8.514;2022-09-01T09:15:57;3.15;;;1.30;;
69197;SDS011;56311;50.298;8.514;2022-09-01T09:18:36;6.45;;;1.38;;
69197;SDS011;56311;50.298;8.514;2022-09-01T09:21:21;4.10;;;1.30;;
69197;SDS011;56311;50.298;8.514;2022-09-01T09:23:55;3.15;;;1.15;;
69197;SDS011;56311;50.298;8.514;2022-09-01T09:26:29;4.78;;;1.20;;
69197;SDS011;56311;50.298;8.514;2022-09-01T09:29:07;3.60;;;1.20;;
69197;SDS011;56311;50.298;8.514;2022-09-01T09:31:35;4.68;;;1.13;;
69197;SDS011;56311;50.298;8.514;2022-09-01T09:34:15;4.07;;;1.10;;
69197;SDS011;56311;50.298;8.514;2022-09-01T09:37:00;5.53;;;1.25;;
69197;SDS011;56311;50.298;8.514;2022-09-01T09:39:44;3.63;;;1.23;;
69197;SDS011;56311;50.298;8.514;2022-09-01T09:42:12;7.75;;;1.02;;
69197;SDS011;56311;50.298;8.514;2022-09-01T09:44:42;10.13;;;1.40;;
69197;SDS011;56311;50.298;8.514;2022-09-01T09:50:22;5.85;;;1.08;;
69197;SDS011;56311;50.298;8.514;2022-09-01T09:52:52;4.40;;;1.02;;
69197;SDS011;56311;50.298;8.514;2022-09-01T09:55:38;3.13;;;1.17;;
69197;SDS011;56311;50.298;8.514;2022-09-01T09:58:27;5.43;;;1.25;;
69197;SDS011;56311;50.298;8.514;2022-09-01T10:01:06;4.25;;;1.13;;
69197;SDS011;56311;50.298;8.514;2022-09-01T10:03:44;3.83;;;1.50;;
69197;SDS011;56311;50.298;8.514;2022-09-01T10:06:28;7.30;;;1.30;;
69197;SDS011;56311;50.298;8.514;2022-09-01T10:08:59;2.78;;;1.25;;
69197;SDS011;56311;50.298;8.514;2022-09-01T10:11:30;5.40;;;1.50;;
69197;SDS011;56311;50.298;8.514;2022-09-01T10:14:08;2.90;;;1.00;;
69197;SDS011;56311;50.298;8.514;2022-09-01T10:17:01;4.47;;;1.25;;
69197;SDS011;56311;50.298;8.514;2022-09-01T10:19:32;7.65;;;1.17;;
69197;SDS011;56311;50.298;8.514;2022-09-01T10:22:05;3.15;;;1.20;;
69197;SDS011;56311;50.298;8.514;2022-09-01T10:24:36;4.45;;;1.10;;
69197;SDS011;56311;50.298;8.514;2022-09-01T10:27:15;3.28;;;1.10;;
69197;SDS011;56311;50.298;8.514;2022-09-01T10:29:47;7.13;;;1.10;;
69197;SDS011;56311;50.298;8.514;2022-09-01T10:32:38;5.25;;;1.20;;
69197;SDS011;56311;50.298;8.514;2022-09-01T10:35:20;5.32;;;1.08;;
69197;SDS011;56311;50.298;8.514;2022-09-01T10:37:51;5.38;;;1.00;;
69197;SDS011;56311;50.298;8.514;2022-09-01T10:40:37;3.92;;;1.30;;
69197;SDS011;56311;50.298;8.514;2022-09-01T10:46:40;4.95;;;1.10;;
69197;SDS011;56311;50.298;8.514;2022-09-01T10:55:20;6.57;;;1.23;;
69197;SDS011;56311;50.298;8.514;2022-09-01T10:57:53;2.75;;;0.90;;
69197;SDS011;56311;50.298;8.514;2022-09-01T11:00:51;3.03;;;1.08;;
69197;SDS011;56311;50.298;8.514;2022-09-01T11:10:05;4.28;;;1.20;;
69197;SDS011;56311;50.298;8.514;2022-09-01T11:13:06;4.47;;;1.20;;
69197;SDS011;56311;50.298;8.514;2022-09-01T11:15:52;5.28;;;1.20;;
69197;SDS011;56311;50.298;8.514;2022-09-01T11:18:26;4.47;;;0.98;;
69197;SDS011;56311;50.298;8.514;2022-09-01T11:23:52;4.35;;;1.10;;
69197;SDS011;56311;50.298;8.514;2022-09-01T11:26:59;3.05;;;1.33;;
69197;SDS011;56311;50.298;8.514;2022-09-01T11:32:22;5.20;;;1.10;;
69197;SDS011;56311;50.298;8.514;2022-09-01T11:34:54;12.18;;;1.73;;
69197;SDS011;56311;50.298;8.514;2022-09-01T11:37:26;7.97;;;1.10;;
69197;SDS011;56311;50.298;8.514;2022-09-01T11:39:57;15.35;;;1.77;;
69197;SDS011;56311;50.298;8.514;2022-09-01T11:42:30;6.57;;;1.40;;
69197;SDS011;56311;50.298;8.514;2022-09-01T11:45:06;2.88;;;1.00;;
69197;SDS011;56311;50.298;8.514;2022-09-01T11:47:48;6.53;;;0.95;;
69197;SDS011;56311;50.298;8.514;2022-09-01T11:50:20;4.80;;;1.10;;
69197;SDS011;56311;50.298;8.514;2022-09-01T11:52:55;5.40;;;1.00;;
69197;SDS011;56311;50.298;8.514;2022-09-01T11:55:31;11.23;;;1.60;;
69197;SDS011;56311;50.298;8.514;2022-09-01T11:58:02;4.05;;;1.02;;
69197;SDS011;56311;50.298;8.514;2022-09-01T12:00:31;4.65;;;1.10;;
69197;SDS011;56311;50.298;8.514;2022-09-01T12:03:04;5.97;;;1.25;;
69197;SDS011;56311;50.298;8.514;2022-09-01T12:05:46;5.25;;;1.33;;
69197;SDS011;56311;50.298;8.514;2022-09-01T12:08:20;3.72;;;0.98;;
69197;SDS011;56311;50.298;8.514;2022-09-01T12:10:50;6.47;;;1.30;;
69197;SDS011;56311;50.298;8.514;2022-09-01T12:13:31;7.47;;;1.30;;
69197;SDS011;56311;50.298;8.514;2022-09-01T12:16:00;2.70;;;1.00;;
69197;SDS011;56311;50.298;8.514;2022-09-01T12:18:47;4.70;;;1.20;;
69197;SDS011;56311;50.298;8.514;2022-09-01T12:21:19;3.72;;;1.25;;
69197;SDS011;56311;50.298;8.514;2022-09-01T12:23:53;2.80;;;1.10;;
69197;SDS011;56311;50.298;8.514;2022-09-01T12:26:36;4.38;;;1.40;;
69197;SDS011;56311;50.298;8.514;2022-09-01T12:29:05;3.78;;;1.30;;
69197;SDS011;56311;50.298;8.514;2022-09-01T12:31:35;2.95;;;0.98;;
69197;SDS011;56311;50.298;8.514;2022-09-01T12:34:21;4.20;;;1.00;;
69197;SDS011;56311;50.298;8.514;2022-09-01T12:37:01;4.40;;;1.05;;
69197;SDS011;56311;50.298;8.514;2022-09-01T12:39:34;6.15;;;1.30;;
69197;SDS011;56311;50.298;8.514;2022-09-01T12:42:08;4.43;;;1.20;;
69197;SDS011;56311;50.298;8.514;2022-09-01T12:44:44;3.97;;;1.23;;
69197;SDS011;56311;50.298;8.514;2022-09-01T12:53:22;5.18;;;1.20;;
69197;SDS011;56311;50.298;8.514;2022-09-01T12:55:59;4.30;;;1.25;;
69197;SDS011;56311;50.298;8.514;2022-09-01T12:58:34;2.50;;;0.90;;
69197;SDS011;56311;50.298;8.514;2022-09-01T13:01:03;3.95;;;1.40;;
69197;SDS011;56311;50.298;8.514;2022-09-01T13:06:41;4.30;;;1.38;;
69197;SDS011;56311;50.298;8.514;2022-09-01T13:09:10;4.25;;;1.20;;
69197;SDS011;56311;50.298;8.514;2022-09-01T13:11:41;5.10;;;1.20;;
69197;SDS011;56311;50.298;8.514;2022-09-01T13:14:33;4.80;;;1.27;;
69197;SDS011;56311;50.298;8.514;2022-09-01T13:17:00;4.40;;;1.20;;
69197;SDS011;56311;50.298;8.514;2022-09-01T13:19:27;3.28;;;1.20;;
69197;SDS011;56311;50.298;8.514;2022-09-01T13:21:56;4.10;;;1.15;;
69197;SDS011;56311;50.298;8.514;2022-09-01T13:24:25;3.13;;;1.17;;
69197;SDS011;56311;50.298;8.514;2022-09-01T13:26:59;8.02;;;1.73;;
69197;SDS011;56311;50.298;8.514;2022-09-01T13:29:47;5.93;;;1.20;;
69197;SDS011;56311;50.298;8.514;2022-09-01T13:32:15;9.20;;;1.48;;
69197;SDS011;56311;50.298;8.514;2022-09-01T13:34:47;4.30;;;1.00;;
69197;SDS011;56311;50.298;8.514;2022-09-01T13:37:16;3.55;;;1.20;;
69197;SDS011;56311;50.298;8.514;2022-09-01T13:39:44;6.53;;;1.27;;
69197;SDS011;56311;50.298;8.514;2022-09-01T13:42:14;6.45;;;1.30;;
69197;SDS011;56311;50.298;8.514;2022-09-01T13:44:41;6.00;;;1.30;;
69197;SDS011;56311;50.298;8.514;2022-09-01T13:47:09;6.15;;;1.30;;
69197;SDS011;56311;50.298;8.514;2022-09-01T13:49:57;2.60;;;1.10;;
69197;SDS011;56311;50.298;8.514;2022-09-01T13:52:36;4.90;;;1.23;;
69197;SDS011;56311;50.298;8.514;2022-09-01T13:55:04;6.68;;;1.50;;
69197;SDS011;56311;50.298;8.514;2022-09-01T13:57:34;7.35;;;1.45;;
69197;SDS011;56311;50.298;8.514;2022-09-01T14:00:04;7.18;;;1.20;;
69197;SDS011;56311;50.298;8.514;2022-09-01T14:02:36;3.35;;;1.10;;
69197;SDS011;56311;50.298;8.514;2022-09-01T14:05:06;4.50;;;1.30;;
69197;SDS011;56311;50.298;8.514;2022-09-01T14:07:35;3.70;;;1.00;;
69197;SDS011;56311;50.298;8.514;2022-09-01T14:10:07;5.40;;;1.10;;
69197;SDS011;56311;50.298;8.514;2022-09-01T14:12:36;2.42;;;0.98;;
69197;SDS011;56311;50.298;8.514;2022-09-01T14:15:06;5.18;;;1.20;;
69197;SDS011;56311;50.298;8.514;2022-09-01T14:17:41;3.42;;;1.25;;
69197;SDS011;56311;50.298;8.514;2022-09-01T14:20:10;5.38;;;1.15;;
69197;SDS011;56311;50.298;8.514;2022-09-01T14:22:39;5.65;;;1.27;;
69197;SDS011;56311;50.298;8.514;2022-09-01T14:25:07;5.18;;;1.20;;
69197;SDS011;56311;50.298;8.514;2022-09-01T14:27:40;5.07;;;1.35;;
69197;SDS011;56311;50.298;8.514;2022-09-01T14:30:11;4.30;;;1.20;;
69197;SDS011;56311;50.298;8.514;2022-09-01T14:32:41;3.90;;;1.05;;
69197;SDS011;56311;50.298;8.514;2022-09-01T14:35:10;5.85;;;1.48;;
69197;SDS011;56311;50.298;8.514;2022-09-01T14:37:38;4.47;;;1.00;;
69197;SDS011;56311;50.298;8.514;2022-09-01T14:40:06;4.47;;;1.10;;
69197;SDS011;56311;50.298;8.514;2022-09-01T14:42:45;3.92;;;1.25;;
69197;SDS011;56311;50.298;8.514;2022-09-01T14:45:15;4.43;;;1.13;;
69197;SDS011;56311;50.298;8.514;2022-09-01T14:47:45;4.03;;;1.30;;
69197;SDS011;56311;50.298;8.514;2022-09-01T14:50:14;6.03;;;1.10;;
69197;SDS011;56311;50.298;8.514;2022-09-01T14:52:49;3.60;;;1.08;;
69197;SDS011;56311;50.298;8.514;2022-09-01T14:55:18;4.80;;;0.90;;
69197;SDS011;56311;50.298;8.514;2022-09-01T14:57:47;4.03;;;1.20;;
69197;SDS011;56311;50.298;8.514;2022-09-01T15:00:16;4.95;;;1.13;;
69197;SDS011;56311;50.298;8.514;2022-09-01T15:02:44;3.50;;;1.30;;
69197;SDS011;56311;50.298;8.514;2022-09-01T15:05:12;3.00;;;1.05;;
69197;SDS011;56311;50.298;8.514;2022-09-01T15:07:40;3.95;;;1.00;;
69197;SDS011;56311;50.298;8.514;2022-09-01T15:13:50;2.40;;;1.00;;
69197;SDS011;56311;50.298;8.514;2022-09-01T15:16:19;5.72;;;1.20;;
69197;SDS011;56311;50.298;8.514;2022-09-01T15:18:49;3.22;;;0.90;;
69197;SDS011;56311;50.298;8.514;2022-09-01T15:21:17;4.53;;;1.17;;
69197;SDS011;56311;50.298;8.514;2022-09-01T15:23:46;2.95;;;1.13;;
69197;SDS011;56311;50.298;8.514;2022-09-01T15:26:14;3.63;;;1.20;;
69197;SDS011;56311;50.298;8.514;2022-09-01T15:28:42;4.50;;;1.20;;
69197;SDS011;56311;50.298;8.514;2022-09-01T15:31:11;5.40;;;1.30;;
69197;SDS011;56311;50.298;8.514;2022-09-01T15:33:42;2.38;;;0.80;;
69197;SDS011;56311;50.298;8.514;2022-09-01T15:36:13;2.78;;;1.00;;
69197;SDS011;56311;50.298;8.514;2022-09-01T15:38:41;3.03;;;1.17;;
69197;SDS011;56311;50.298;8.514;2022-09-01T15:41:13;6.03;;;1.10;;
69197;SDS011;56311;50.298;8.514;2022-09-01T15:43:41;4.30;;;1.00;;
69197;SDS011;56311;50.298;8.514;2022-09-01T15:46:08;2.75;;;1.23;;
69197;SDS011;56311;50.298;8.514;2022-09-01T15:48:39;5.90;;;1.30;;
69197;SDS011;56311;50.298;8.514;2022-09-01T15:51:23;4.07;;;1.10;;
69197;SDS011;56311;50.298;8.514;2022-09-01T15:53:56;3.45;;;1.20;;
69197;SDS011;56311;50.298;8.514;2022-09-01T15:56:26;4.57;;;1.40;;
69197;SDS011;56311;50.298;8.514;2022-09-01T15:58:54;3.35;;;1.13;;
69197;SDS011;56311;50.298;8.514;2022-09-01T16:01:29;4.47;;;1.40;;
69197;SDS011;56311;50.298;8.514;2022-09-01T16:03:59;4.10;;;1.20;;